sensor_id;sensor_type;location;lat;lon;timestamp;P1;durP1;ratioP1;P2;durP2;ratioP2
72235;SDS011;60146;52.498;13.462;2023-03-24T00:00:06;6.20;;;2.70;;
72235;SDS011;60146;52.498;13.462;2023-03-24T00:02:36;5.00;;;2.50;;
72235;SDS011;60146;52.498;13.462;2023-03-24T00:05:06;5.95;;;2.38;;
72235;SDS011;60146;52.498;13.462;2023-03-24T00:07:33;2.93;;;2.10;;
72235;SDS011;60146;52.498;13.462;2023-03-24T00:10:02;4.43;;;2.20;;
72235;SDS011;60146;52.498;13.462;2023-03-24T00:12:29;4.37;;;2.50;;
72235;SDS011;60146;52.498;13.462;2023-03-24T00:14:54;4.70;;;2.70;;
72235;SDS011;60146;52.498;13.462;2023-03-24T00:17:19;3.20;;;2.10;;
72235;SDS011;60146;52.498;13.462;2023-03-24T00:19:49;4.85;;;2.55;;
72235;SDS011;60146;52.498;13.462;2023-03-24T00:22:20;4.67;;;2.50;;
72235;SDS011;60146;52.498;13.462;2023-03-24T00:24:45;5.50;;;2.17;;
72235;SDS011;60146;52.498;13.462;2023-03-24T00:27:11;4.47;;;2.30;;
72235;SDS011;60146;52.498;13.462;2023-03-24T00:29:41;6.00;;;2.63;;
72235;SDS011;60146;52.498;13.462;2023-03-24T00:32:07;5.17;;;2.40;;
72235;SDS011;60146;52.498;13.462;2023-03-24T00:34:33;5.57;;;2.53;;
72235;SDS011;60146;52.498;13.462;2023-03-24T00:37:03;3.87;;;2.23;;
72235;SDS011;60146;52.498;13.462;2023-03-24T00:39:29;5.67;;;2.20;;
72235;SDS011;60146;52.498;13.462;2023-03-24T00:41:55;4.77;;;2.07;;
72235;SDS011;60146;52.498;13.462;2023-03-24T00:44:23;2.83;;;2.10;;
72235;SDS011;60146;52.498;13.462;2023-03-24T00:46:49;3.37;;;2.07;;
72235;SDS011;60146;52.498;13.462;2023-03-24T00:49:25;3.07;;;2.13;;
72235;SDS011;60146;52.498;13.462;2023-03-24T00:52:11;2.97;;;2.03;;
72235;SDS011;60146;52.498;13.462;2023-03-24T00:54:38;4.20;;;2.20;;
72235;SDS011;60146;52.498;13.462;2023-03-24T00:57:07;4.37;;;1.90;;
72235;SDS011;60146;52.498;13.462;2023-03-24T00:59:36;4.37;;;1.97;;
72235;SDS011;60146;52.498;13.462;2023-03-24T01:02:09;2.10;;;1.77;;
72235;SDS011;60146;52.498;13.462;2023-03-24T01:04:39;2.65;;;1.83;;
72235;SDS011;60146;52.498;13.462;2023-03-24T01:07:08;2.93;;;1.90;;
72235;SDS011;60146;52.498;13.462;2023-03-24T01:09:35;2.80;;;1.92;;
72235;SDS011;60146;52.498;13.462;2023-03-24T01:12:02;4.37;;;2.00;;
72235;SDS011;60146;52.498;13.462;2023-03-24T01:14:28;3.03;;;1.90;;
72235;SDS011;60146;52.498;13.462;2023-03-24T01:16:54;2.73;;;1.90;;
72235;SDS011;60146;52.498;13.462;2023-03-24T01:19:20;2.70;;;1.70;;
72235;SDS011;60146;52.498;13.462;2023-03-24T01:21:45;4.27;;;2.07;;
72235;SDS011;60146;52.498;13.462;2023-03-24T01:24:15;4.50;;;1.87;;
72235;SDS011;60146;52.498;13.462;2023-03-24T01:26:40;4.47;;;1.70;;
72235;SDS011;60146;52.498;13.462;2023-03-24T01:29:06;4.57;;;1.80;;
72235;SDS011;60146;52.498;13.462;2023-03-24T01:31:32;3.23;;;2.07;;
72235;SDS011;60146;52.498;13.462;2023-03-24T01:33:57;2.70;;;1.87;;
72235;SDS011;60146;52.498;13.462;2023-03-24T01:36:23;2.40;;;1.70;;
72235;SDS011;60146;52.498;13.462;2023-03-24T01:38:48;2.87;;;1.80;;
72235;SDS011;60146;52.498;13.462;2023-03-24T01:41:14;3.53;;;1.90;;
72235;SDS011;60146;52.498;13.462;2023-03-24T01:43:39;3.27;;;1.93;;
72235;SDS011;60146;52.498;13.462;2023-03-24T01:46:06;2.90;;;1.87;;
72235;SDS011;60146;52.498;13.462;2023-03-24T01:51:30;2.37;;;1.77;;
72235;SDS011;60146;52.498;13.462;2023-03-24T01:56:48;3.33;;;1.83;;
72235;SDS011;60146;52.498;13.462;2023-03-24T01:59:17;2.63;;;2.10;;
72235;SDS011;60146;52.498;13.462;2023-03-24T02:04:13;2.47;;;2.03;;
72235;SDS011;60146;52.498;13.462;2023-03-24T02:06:40;2.70;;;1.97;;
72235;SDS011;60146;52.498;13.462;2023-03-24T02:09:08;3.63;;;2.10;;
72235;SDS011;60146;52.498;13.462;2023-03-24T02:11:35;4.03;;;2.20;;
72235;SDS011;60146;52.498;13.462;2023-03-24T02:14:02;3.70;;;2.17;;
72235;SDS011;60146;52.498;13.462;2023-03-24T02:30:30;3.50;;;2.17;;
72235;SDS011;60146;52.498;13.462;2023-03-24T02:33:27;2.20;;;1.70;;
72235;SDS011;60146;52.498;13.462;2023-03-24T02:45:21;3.10;;;1.87;;
72235;SDS011;60146;52.498;13.462;2023-03-24T02:47:51;3.20;;;1.83;;
72235;SDS011;60146;52.498;13.462;2023-03-24T02:50:41;2.63;;;1.60;;
72235;SDS011;60146;52.498;13.462;2023-03-24T02:53:14;2.67;;;1.53;;
72235;SDS011;60146;52.498;13.462;2023-03-24T02:56:11;5.73;;;1.70;;
72235;SDS011;60146;52.498;13.462;2023-03-24T02:59:00;3.17;;;1.90;;
72235;SDS011;60146;52.498;13.462;2023-03-24T03:01:40;3.70;;;2.00;;
72235;SDS011;60146;52.498;13.462;2023-03-24T03:07:57;2.97;;;1.77;;
72235;SDS011;60146;52.498;13.462;2023-03-24T03:25:00;3.47;;;2.10;;
72235;SDS011;60146;52.498;13.462;2023-03-24T03:27:32;2.70;;;1.73;;
72235;SDS011;60146;52.498;13.462;2023-03-24T03:33:11;2.53;;;1.73;;
72235;SDS011;60146;52.498;13.462;2023-03-24T03:39:23;4.10;;;1.80;;
72235;SDS011;60146;52.498;13.462;2023-03-24T03:49:18;3.23;;;1.80;;
72235;SDS011;60146;52.498;13.462;2023-03-24T04:08:25;3.07;;;2.10;;
72235;SDS011;60146;52.498;13.462;2023-03-24T04:21:41;3.10;;;2.40;;
72235;SDS011;60146;52.498;13.462;2023-03-24T04:24:50;7.10;;;2.70;;
72235;SDS011;60146;52.498;13.462;2023-03-24T04:35:21;6.57;;;2.70;;
72235;SDS011;60146;52.498;13.462;2023-03-24T04:38:06;3.73;;;2.30;;
72235;SDS011;60146;52.498;13.462;2023-03-24T04:40:35;4.00;;;2.63;;
72235;SDS011;60146;52.498;13.462;2023-03-24T04:43:05;7.43;;;2.90;;
72235;SDS011;60146;52.498;13.462;2023-03-24T04:45:34;5.60;;;2.80;;
72235;SDS011;60146;52.498;13.462;2023-03-24T04:48:04;3.87;;;2.67;;
72235;SDS011;60146;52.498;13.462;2023-03-24T04:50:35;4.80;;;2.67;;
72235;SDS011;60146;52.498;13.462;2023-03-24T04:53:07;4.30;;;2.60;;
72235;SDS011;60146;52.498;13.462;2023-03-24T04:58:17;5.93;;;2.67;;
72235;SDS011;60146;52.498;13.462;2023-03-24T05:00:45;5.20;;;3.03;;
72235;SDS011;60146;52.498;13.462;2023-03-24T05:03:10;5.50;;;3.00;;
72235;SDS011;60146;52.498;13.462;2023-03-24T05:05:38;5.00;;;2.93;;
72235;SDS011;60146;52.498;13.462;2023-03-24T05:08:07;8.23;;;3.47;;
72235;SDS011;60146;52.498;13.462;2023-03-24T05:10:34;4.77;;;3.17;;
72235;SDS011;60146;52.498;13.462;2023-03-24T05:12:59;7.00;;;3.00;;
72235;SDS011;60146;52.498;13.462;2023-03-24T05:15:25;5.87;;;3.03;;
72235;SDS011;60146;52.498;13.462;2023-03-24T05:17:50;5.93;;;3.33;;
72235;SDS011;60146;52.498;13.462;2023-03-24T05:20:16;5.40;;;3.37;;
72235;SDS011;60146;52.498;13.462;2023-03-24T05:22:42;7.00;;;3.10;;
72235;SDS011;60146;52.498;13.462;2023-03-24T05:25:08;6.23;;;3.10;;
72235;SDS011;60146;52.498;13.462;2023-03-24T05:27:33;8.57;;;2.90;;
72235;SDS011;60146;52.498;13.462;2023-03-24T05:29:59;5.93;;;3.00;;
72235;SDS011;60146;52.498;13.462;2023-03-24T05:32:24;6.20;;;3.20;;
72235;SDS011;60146;52.498;13.462;2023-03-24T05:34:50;5.27;;;3.00;;
72235;SDS011;60146;52.498;13.462;2023-03-24T05:37:15;7.37;;;3.13;;
72235;SDS011;60146;52.498;13.462;2023-03-24T05:39:42;6.80;;;3.43;;
72235;SDS011;60146;52.498;13.462;2023-03-24T05:42:08;5.60;;;3.10;;
72235;SDS011;60146;52.498;13.462;2023-03-24T05:44:34;7.57;;;3.20;;
72235;SDS011;60146;52.498;13.462;2023-03-24T05:47:00;6.07;;;2.90;;
72235;SDS011;60146;52.498;13.462;2023-03-24T05:49:26;5.00;;;3.00;;
72235;SDS011;60146;52.498;13.462;2023-03-24T05:51:51;6.87;;;3.30;;
72235;SDS011;60146;52.498;13.462;2023-03-24T05:54:16;4.80;;;2.80;;
72235;SDS011;60146;52.498;13.462;2023-03-24T05:56:42;6.40;;;3.10;;
72235;SDS011;60146;52.498;13.462;2023-03-24T05:59:07;5.87;;;2.87;;
72235;SDS011;60146;52.498;13.462;2023-03-24T06:01:33;4.67;;;2.80;;
72235;SDS011;60146;52.498;13.462;2023-03-24T06:03:59;6.67;;;2.90;;
72235;SDS011;60146;52.498;13.462;2023-03-24T06:06:24;4.83;;;2.67;;
72235;SDS011;60146;52.498;13.462;2023-03-24T06:08:52;3.77;;;2.70;;
72235;SDS011;60146;52.498;13.462;2023-03-24T06:11:18;5.63;;;2.83;;
72235;SDS011;60146;52.498;13.462;2023-03-24T06:13:44;5.37;;;3.10;;
72235;SDS011;60146;52.498;13.462;2023-03-24T06:16:09;6.10;;;3.10;;
72235;SDS011;60146;52.498;13.462;2023-03-24T06:18:35;4.50;;;2.90;;
72235;SDS011;60146;52.498;13.462;2023-03-24T06:21:04;7.03;;;3.00;;
72235;SDS011;60146;52.498;13.462;2023-03-24T06:23:30;6.07;;;2.80;;
72235;SDS011;60146;52.498;13.462;2023-03-24T06:25:58;4.30;;;2.60;;
72235;SDS011;60146;52.498;13.462;2023-03-24T06:28:25;4.60;;;3.03;;
72235;SDS011;60146;52.498;13.462;2023-03-24T06:30:54;4.53;;;2.70;;
72235;SDS011;60146;52.498;13.462;2023-03-24T06:33:20;6.30;;;3.03;;
72235;SDS011;60146;52.498;13.462;2023-03-24T06:35:50;6.03;;;2.80;;
72235;SDS011;60146;52.498;13.462;2023-03-24T06:38:17;5.60;;;2.83;;
72235;SDS011;60146;52.498;13.462;2023-03-24T06:40:42;4.27;;;2.60;;
72235;SDS011;60146;52.498;13.462;2023-03-24T06:43:07;4.63;;;2.83;;
72235;SDS011;60146;52.498;13.462;2023-03-24T06:45:33;4.93;;;2.53;;
72235;SDS011;60146;52.498;13.462;2023-03-24T06:47:59;5.13;;;2.60;;
72235;SDS011;60146;52.498;13.462;2023-03-24T06:50:24;4.73;;;2.90;;
72235;SDS011;60146;52.498;13.462;2023-03-24T06:52:51;9.07;;;2.93;;
72235;SDS011;60146;52.498;13.462;2023-03-24T06:55:17;4.17;;;2.60;;
72235;SDS011;60146;52.498;13.462;2023-03-24T06:57:44;5.17;;;2.80;;
72235;SDS011;60146;52.498;13.462;2023-03-24T07:00:10;6.13;;;2.50;;
72235;SDS011;60146;52.498;13.462;2023-03-24T07:02:35;5.40;;;2.50;;
72235;SDS011;60146;52.498;13.462;2023-03-24T07:05:02;4.87;;;2.57;;
72235;SDS011;60146;52.498;13.462;2023-03-24T07:07:31;4.87;;;2.83;;
72235;SDS011;60146;52.498;13.462;2023-03-24T07:09:57;4.73;;;2.40;;
72235;SDS011;60146;52.498;13.462;2023-03-24T07:12:22;7.13;;;2.83;;
72235;SDS011;60146;52.498;13.462;2023-03-24T07:14:48;4.63;;;2.37;;
72235;SDS011;60146;52.498;13.462;2023-03-24T07:17:13;7.23;;;2.70;;
72235;SDS011;60146;52.498;13.462;2023-03-24T07:19:38;5.23;;;2.70;;
72235;SDS011;60146;52.498;13.462;2023-03-24T07:22:04;3.90;;;2.60;;
72235;SDS011;60146;52.498;13.462;2023-03-24T07:24:32;7.67;;;2.70;;
72235;SDS011;60146;52.498;13.462;2023-03-24T07:26:59;6.47;;;2.90;;
72235;SDS011;60146;52.498;13.462;2023-03-24T07:29:25;11.40;;;3.33;;
72235;SDS011;60146;52.498;13.462;2023-03-24T07:31:50;3.47;;;2.50;;
72235;SDS011;60146;52.498;13.462;2023-03-24T07:34:17;6.90;;;2.87;;
72235;SDS011;60146;52.498;13.462;2023-03-24T07:36:42;8.07;;;2.60;;
72235;SDS011;60146;52.498;13.462;2023-03-24T07:39:08;4.13;;;2.43;;
72235;SDS011;60146;52.498;13.462;2023-03-24T07:41:33;3.80;;;2.07;;
72235;SDS011;60146;52.498;13.462;2023-03-24T07:43:58;4.43;;;2.57;;
72235;SDS011;60146;52.498;13.462;2023-03-24T07:46:24;12.23;;;2.80;;
72235;SDS011;60146;52.498;13.462;2023-03-24T07:48:50;7.17;;;2.33;;
72235;SDS011;60146;52.498;13.462;2023-03-24T07:51:15;6.30;;;2.60;;
72235;SDS011;60146;52.498;13.462;2023-03-24T07:53:43;4.30;;;2.53;;
72235;SDS011;60146;52.498;13.462;2023-03-24T07:56:09;4.47;;;2.30;;
72235;SDS011;60146;52.498;13.462;2023-03-24T07:58:35;4.57;;;2.30;;
72235;SDS011;60146;52.498;13.462;2023-03-24T08:01:00;3.53;;;2.60;;
72235;SDS011;60146;52.498;13.462;2023-03-24T08:03:26;4.23;;;2.60;;
72235;SDS011;60146;52.498;13.462;2023-03-24T08:05:52;5.43;;;3.03;;
72235;SDS011;60146;52.498;13.462;2023-03-24T08:08:19;4.80;;;2.50;;
72235;SDS011;60146;52.498;13.462;2023-03-24T08:10:46;3.80;;;2.57;;
72235;SDS011;60146;52.498;13.462;2023-03-24T08:13:14;5.33;;;2.80;;
72235;SDS011;60146;52.498;13.462;2023-03-24T08:15:39;4.07;;;2.70;;
72235;SDS011;60146;52.498;13.462;2023-03-24T08:18:07;4.67;;;2.60;;
72235;SDS011;60146;52.498;13.462;2023-03-24T08:20:32;4.90;;;2.53;;
72235;SDS011;60146;52.498;13.462;2023-03-24T08:22:58;4.20;;;2.50;;
72235;SDS011;60146;52.498;13.462;2023-03-24T08:25:25;4.53;;;2.80;;
72235;SDS011;60146;52.498;13.462;2023-03-24T08:27:51;6.13;;;2.80;;
72235;SDS011;60146;52.498;13.462;2023-03-24T08:30:19;5.13;;;2.57;;
72235;SDS011;60146;52.498;13.462;2023-03-24T08:33:04;5.03;;;2.60;;
72235;SDS011;60146;52.498;13.462;2023-03-24T08:35:33;5.90;;;2.70;;
72235;SDS011;60146;52.498;13.462;2023-03-24T08:38:02;5.60;;;2.70;;
72235;SDS011;60146;52.498;13.462;2023-03-24T08:40:28;4.57;;;2.60;;
72235;SDS011;60146;52.498;13.462;2023-03-24T08:42:58;3.87;;;2.47;;
72235;SDS011;60146;52.498;13.462;2023-03-24T08:45:28;4.37;;;2.40;;
72235;SDS011;60146;52.498;13.462;2023-03-24T08:47:56;5.72;;;2.60;;
72235;SDS011;60146;52.498;13.462;2023-03-24T08:50:24;5.77;;;2.53;;
72235;SDS011;60146;52.498;13.462;2023-03-24T08:52:52;4.47;;;2.37;;
72235;SDS011;60146;52.498;13.462;2023-03-24T08:55:19;5.40;;;2.80;;
72235;SDS011;60146;52.498;13.462;2023-03-24T08:57:59;4.53;;;2.50;;
72235;SDS011;60146;52.498;13.462;2023-03-24T09:00:28;4.63;;;2.70;;
72235;SDS011;60146;52.498;13.462;2023-03-24T09:02:53;4.53;;;2.50;;
72235;SDS011;60146;52.498;13.462;2023-03-24T09:05:21;6.50;;;2.80;;
72235;SDS011;60146;52.498;13.462;2023-03-24T09:07:47;6.27;;;3.00;;
72235;SDS011;60146;52.498;13.462;2023-03-24T09:10:14;5.23;;;2.60;;
72235;SDS011;60146;52.498;13.462;2023-03-24T09:12:40;3.80;;;2.57;;
72235;SDS011;60146;52.498;13.462;2023-03-24T09:15:07;4.40;;;2.50;;
72235;SDS011;60146;52.498;13.462;2023-03-24T09:17:34;5.57;;;3.07;;
72235;SDS011;60146;52.498;13.462;2023-03-24T09:20:00;4.87;;;2.73;;
72235;SDS011;60146;52.498;13.462;2023-03-24T09:22:29;4.90;;;2.70;;
72235;SDS011;60146;52.498;13.462;2023-03-24T09:24:55;6.37;;;2.77;;
72235;SDS011;60146;52.498;13.462;2023-03-24T09:27:20;4.23;;;2.70;;
72235;SDS011;60146;52.498;13.462;2023-03-24T09:29:53;4.53;;;2.80;;
72235;SDS011;60146;52.498;13.462;2023-03-24T09:32:19;4.47;;;2.80;;
72235;SDS011;60146;52.498;13.462;2023-03-24T09:34:45;4.73;;;2.53;;
72235;SDS011;60146;52.498;13.462;2023-03-24T09:37:13;5.63;;;2.77;;
72235;SDS011;60146;52.498;13.462;2023-03-24T09:39:41;4.27;;;2.60;;
72235;SDS011;60146;52.498;13.462;2023-03-24T09:42:12;4.37;;;2.70;;
72235;SDS011;60146;52.498;13.462;2023-03-24T09:44:51;7.17;;;2.80;;
72235;SDS011;60146;52.498;13.462;2023-03-24T09:50:18;3.53;;;2.40;;
72235;SDS011;60146;52.498;13.462;2023-03-24T09:52:52;4.40;;;2.57;;
72235;SDS011;60146;52.498;13.462;2023-03-24T09:55:23;3.67;;;2.50;;
72235;SDS011;60146;52.498;13.462;2023-03-24T10:00:32;4.70;;;2.47;;
72235;SDS011;60146;52.498;13.462;2023-03-24T10:03:18;3.73;;;2.50;;
72235;SDS011;60146;52.498;13.462;2023-03-24T10:08:35;4.03;;;2.50;;
72235;SDS011;60146;52.498;13.462;2023-03-24T10:16:42;4.47;;;2.43;;
72235;SDS011;60146;52.498;13.462;2023-03-24T10:22:16;3.57;;;1.90;;
72235;SDS011;60146;52.498;13.462;2023-03-24T10:27:43;3.00;;;1.77;;
72235;SDS011;60146;52.498;13.462;2023-03-24T10:30:23;3.73;;;1.50;;
72235;SDS011;60146;52.498;13.462;2023-03-24T10:33:03;3.70;;;1.93;;
72235;SDS011;60146;52.498;13.462;2023-03-24T10:35:31;3.77;;;2.13;;
72235;SDS011;60146;52.498;13.462;2023-03-24T10:38:01;3.97;;;2.00;;
72235;SDS011;60146;52.498;13.462;2023-03-24T10:40:42;3.97;;;2.20;;
72235;SDS011;60146;52.498;13.462;2023-03-24T10:43:09;3.40;;;2.13;;
72235;SDS011;60146;52.498;13.462;2023-03-24T10:45:37;4.00;;;2.10;;
72235;SDS011;60146;52.498;13.462;2023-03-24T10:48:05;8.98;;;3.08;;
72235;SDS011;60146;52.498;13.462;2023-03-24T10:50:31;2.90;;;2.10;;
72235;SDS011;60146;52.498;13.462;2023-03-24T10:52:59;3.03;;;1.92;;
72235;SDS011;60146;52.498;13.462;2023-03-24T10:55:37;2.90;;;2.20;;
72235;SDS011;60146;52.498;13.462;2023-03-24T10:58:03;3.00;;;1.85;;
72235;SDS011;60146;52.498;13.462;2023-03-24T11:00:37;4.27;;;2.30;;
72235;SDS011;60146;52.498;13.462;2023-03-24T11:03:04;4.53;;;2.13;;
72235;SDS011;60146;52.498;13.462;2023-03-24T11:05:32;9.10;;;2.10;;
72235;SDS011;60146;52.498;13.462;2023-03-24T11:10:41;2.67;;;2.00;;
72235;SDS011;60146;52.498;13.462;2023-03-24T11:13:15;4.67;;;2.37;;
72235;SDS011;60146;52.498;13.462;2023-03-24T11:15:51;3.70;;;1.97;;
72235;SDS011;60146;52.498;13.462;2023-03-24T11:18:19;4.37;;;1.90;;
72235;SDS011;60146;52.498;13.462;2023-03-24T11:20:58;2.67;;;1.77;;
72235;SDS011;60146;52.498;13.462;2023-03-24T11:23:28;3.10;;;1.90;;
72235;SDS011;60146;52.498;13.462;2023-03-24T11:26:06;4.43;;;2.20;;
72235;SDS011;60146;52.498;13.462;2023-03-24T11:28:55;6.88;;;2.03;;
72235;SDS011;60146;52.498;13.462;2023-03-24T11:31:28;2.60;;;1.88;;
72235;SDS011;60146;52.498;13.462;2023-03-24T11:33:56;2.85;;;1.65;;
72235;SDS011;60146;52.498;13.462;2023-03-24T11:39:13;3.00;;;1.73;;
72235;SDS011;60146;52.498;13.462;2023-03-24T11:44:23;2.08;;;1.60;;
72235;SDS011;60146;52.498;13.462;2023-03-24T11:46:52;3.20;;;1.70;;
72235;SDS011;60146;52.498;13.462;2023-03-24T11:49:21;2.55;;;1.60;;
72235;SDS011;60146;52.498;13.462;2023-03-24T11:51:52;1.90;;;1.48;;
72235;SDS011;60146;52.498;13.462;2023-03-24T11:54:20;2.42;;;1.85;;
72235;SDS011;60146;52.498;13.462;2023-03-24T11:56:55;2.17;;;1.52;;
72235;SDS011;60146;52.498;13.462;2023-03-24T11:59:45;4.00;;;1.80;;
72235;SDS011;60146;52.498;13.462;2023-03-24T12:10:54;2.92;;;1.60;;
72235;SDS011;60146;52.498;13.462;2023-03-24T12:16:08;2.83;;;2.00;;
72235;SDS011;60146;52.498;13.462;2023-03-24T12:21:34;4.90;;;1.80;;
72235;SDS011;60146;52.498;13.462;2023-03-24T12:24:27;3.03;;;1.70;;
72235;SDS011;60146;52.498;13.462;2023-03-24T12:26:57;2.10;;;1.75;;
72235;SDS011;60146;52.498;13.462;2023-03-24T12:32:15;3.72;;;1.92;;
72235;SDS011;60146;52.498;13.462;2023-03-24T12:37:32;2.20;;;2.00;;
72235;SDS011;60146;52.498;13.462;2023-03-24T12:43:18;4.50;;;2.00;;
72235;SDS011;60146;52.498;13.462;2023-03-24T12:46:00;3.50;;;2.00;;
72235;SDS011;60146;52.498;13.462;2023-03-24T12:54:35;2.50;;;1.90;;
72235;SDS011;60146;52.498;13.462;2023-03-24T12:57:11;4.30;;;2.00;;
72235;SDS011;60146;52.498;13.462;2023-03-24T13:02:30;4.73;;;2.10;;
72235;SDS011;60146;52.498;13.462;2023-03-24T13:05:02;3.60;;;2.10;;
72235;SDS011;60146;52.498;13.462;2023-03-24T13:07:31;2.27;;;1.90;;
72235;SDS011;60146;52.498;13.462;2023-03-24T13:10:04;4.90;;;2.40;;
72235;SDS011;60146;52.498;13.462;2023-03-24T13:12:39;2.93;;;2.10;;
72235;SDS011;60146;52.498;13.462;2023-03-24T13:17:36;4.17;;;2.60;;
72235;SDS011;60146;52.498;13.462;2023-03-24T13:20:11;5.23;;;2.50;;
72235;SDS011;60146;52.498;13.462;2023-03-24T13:22:38;4.87;;;2.60;;
72235;SDS011;60146;52.498;13.462;2023-03-24T13:25:07;4.83;;;2.60;;
72235;SDS011;60146;52.498;13.462;2023-03-24T13:27:44;6.20;;;2.85;;
72235;SDS011;60146;52.498;13.462;2023-03-24T13:33:02;5.13;;;3.20;;
72235;SDS011;60146;52.498;13.462;2023-03-24T13:38:27;6.43;;;2.75;;
72235;SDS011;60146;52.498;13.462;2023-03-24T13:40:56;7.40;;;3.37;;
72235;SDS011;60146;52.498;13.462;2023-03-24T13:43:22;4.57;;;2.70;;
72235;SDS011;60146;52.498;13.462;2023-03-24T13:45:59;5.00;;;2.83;;
72235;SDS011;60146;52.498;13.462;2023-03-24T13:48:37;4.90;;;2.60;;
72235;SDS011;60146;52.498;13.462;2023-03-24T13:53:54;3.93;;;2.97;;
72235;SDS011;60146;52.498;13.462;2023-03-24T13:56:30;4.93;;;2.73;;
72235;SDS011;60146;52.498;13.462;2023-03-24T14:01:31;4.80;;;2.67;;
72235;SDS011;60146;52.498;13.462;2023-03-24T14:09:31;7.97;;;2.33;;
72235;SDS011;60146;52.498;13.462;2023-03-24T14:14:28;3.13;;;2.00;;
72235;SDS011;60146;52.498;13.462;2023-03-24T14:17:05;2.80;;;1.93;;
72235;SDS011;60146;52.498;13.462;2023-03-24T14:19:37;3.93;;;1.80;;
72235;SDS011;60146;52.498;13.462;2023-03-24T14:22:10;1.33;;;1.23;;
72235;SDS011;60146;52.498;13.462;2023-03-24T14:24:37;3.40;;;1.33;;
72235;SDS011;60146;52.498;13.462;2023-03-24T14:27:20;2.83;;;1.60;;
72235;SDS011;60146;52.498;13.462;2023-03-24T14:29:51;2.63;;;1.40;;
72235;SDS011;60146;52.498;13.462;2023-03-24T14:32:18;3.23;;;1.50;;
72235;SDS011;60146;52.498;13.462;2023-03-24T14:34:54;4.03;;;1.70;;
72235;SDS011;60146;52.498;13.462;2023-03-24T14:37:24;8.43;;;3.47;;
72235;SDS011;60146;52.498;13.462;2023-03-24T14:39:51;2.80;;;1.20;;
72235;SDS011;60146;52.498;13.462;2023-03-24T14:42:27;3.57;;;1.33;;
72235;SDS011;60146;52.498;13.462;2023-03-24T14:48:03;2.50;;;1.70;;
72235;SDS011;60146;52.498;13.462;2023-03-24T14:50:45;2.77;;;1.40;;
72235;SDS011;60146;52.498;13.462;2023-03-24T14:53:16;4.73;;;1.63;;
72235;SDS011;60146;52.498;13.462;2023-03-24T14:55:43;1.90;;;1.30;;
72235;SDS011;60146;52.498;13.462;2023-03-24T14:58:15;5.20;;;1.70;;
72235;SDS011;60146;52.498;13.462;2023-03-24T15:00:46;4.83;;;1.70;;
72235;SDS011;60146;52.498;13.462;2023-03-24T15:06:02;5.53;;;2.00;;
72235;SDS011;60146;52.498;13.462;2023-03-24T15:08:49;4.23;;;1.60;;
72235;SDS011;60146;52.498;13.462;2023-03-24T15:11:17;2.80;;;1.47;;
72235;SDS011;60146;52.498;13.462;2023-03-24T15:13:49;3.55;;;1.60;;
72235;SDS011;60146;52.498;13.462;2023-03-24T15:16:17;2.63;;;1.47;;
72235;SDS011;60146;52.498;13.462;2023-03-24T15:23:54;3.73;;;1.23;;
72235;SDS011;60146;52.498;13.462;2023-03-24T15:26:21;2.60;;;1.37;;
72235;SDS011;60146;52.498;13.462;2023-03-24T15:28:54;3.13;;;1.60;;
72235;SDS011;60146;52.498;13.462;2023-03-24T15:31:22;3.37;;;1.33;;
72235;SDS011;60146;52.498;13.462;2023-03-24T15:33:49;3.47;;;1.00;;
72235;SDS011;60146;52.498;13.462;2023-03-24T15:36:18;3.70;;;1.40;;
72235;SDS011;60146;52.498;13.462;2023-03-24T15:38:46;7.67;;;1.63;;
72235;SDS011;60146;52.498;13.462;2023-03-24T15:41:15;3.67;;;1.05;;
72235;SDS011;60146;52.498;13.462;2023-03-24T15:43:43;4.00;;;1.00;;
72235;SDS011;60146;52.498;13.462;2023-03-24T15:46:17;1.73;;;1.20;;
72235;SDS011;60146;52.498;13.462;2023-03-24T15:48:46;2.93;;;1.20;;
72235;SDS011;60146;52.498;13.462;2023-03-24T15:51:12;4.73;;;1.60;;
72235;SDS011;60146;52.498;13.462;2023-03-24T15:56:33;2.87;;;1.10;;
72235;SDS011;60146;52.498;13.462;2023-03-24T15:59:12;3.13;;;1.00;;
72235;SDS011;60146;52.498;13.462;2023-03-24T16:01:39;1.43;;;0.90;;
72235;SDS011;60146;52.498;13.462;2023-03-24T16:04:07;4.47;;;1.13;;
72235;SDS011;60146;52.498;13.462;2023-03-24T16:06:38;2.80;;;1.00;;
72235;SDS011;60146;52.498;13.462;2023-03-24T16:09:15;2.23;;;0.87;;
72235;SDS011;60146;52.498;13.462;2023-03-24T16:11:45;1.93;;;1.23;;
72235;SDS011;60146;52.498;13.462;2023-03-24T16:14:19;2.80;;;1.40;;
72235;SDS011;60146;52.498;13.462;2023-03-24T16:16:48;4.83;;;1.47;;
72235;SDS011;60146;52.498;13.462;2023-03-24T16:19:18;4.07;;;1.30;;
72235;SDS011;60146;52.498;13.462;2023-03-24T16:21:43;3.77;;;1.33;;
72235;SDS011;60146;52.498;13.462;2023-03-24T16:24:08;2.33;;;1.30;;
72235;SDS011;60146;52.498;13.462;2023-03-24T16:26:34;5.30;;;1.37;;
72235;SDS011;60146;52.498;13.462;2023-03-24T16:34:27;4.25;;;1.45;;
72235;SDS011;60146;52.498;13.462;2023-03-24T16:36:52;3.73;;;1.53;;
72235;SDS011;60146;52.498;13.462;2023-03-24T16:39:20;5.70;;;1.63;;
72235;SDS011;60146;52.498;13.462;2023-03-24T16:41:55;6.90;;;1.87;;
72235;SDS011;60146;52.498;13.462;2023-03-24T16:44:21;4.63;;;1.60;;
72235;SDS011;60146;52.498;13.462;2023-03-24T16:46:47;4.67;;;1.63;;
72235;SDS011;60146;52.498;13.462;2023-03-24T16:49:15;3.70;;;1.77;;
72235;SDS011;60146;52.498;13.462;2023-03-24T16:51:42;4.63;;;1.90;;
72235;SDS011;60146;52.498;13.462;2023-03-24T16:54:10;7.83;;;1.90;;
72235;SDS011;60146;52.498;13.462;2023-03-24T16:56:36;5.83;;;1.93;;
72235;SDS011;60146;52.498;13.462;2023-03-24T16:59:02;5.63;;;2.00;;
72235;SDS011;60146;52.498;13.462;2023-03-24T17:01:29;4.37;;;2.33;;
72235;SDS011;60146;52.498;13.462;2023-03-24T17:04:01;5.40;;;2.00;;
72235;SDS011;60146;52.498;13.462;2023-03-24T17:06:34;5.77;;;1.90;;
72235;SDS011;60146;52.498;13.462;2023-03-24T17:09:01;3.87;;;1.90;;
72235;SDS011;60146;52.498;13.462;2023-03-24T17:11:33;4.90;;;1.80;;
72235;SDS011;60146;52.498;13.462;2023-03-24T17:14:00;7.73;;;1.80;;
72235;SDS011;60146;52.498;13.462;2023-03-24T17:16:29;6.90;;;1.90;;
72235;SDS011;60146;52.498;13.462;2023-03-24T17:19:03;12.90;;;2.10;;
72235;SDS011;60146;52.498;13.462;2023-03-24T17:21:31;5.97;;;2.37;;
72235;SDS011;60146;52.498;13.462;2023-03-24T17:23:59;6.47;;;2.50;;
72235;SDS011;60146;52.498;13.462;2023-03-24T17:26:24;6.73;;;3.00;;
72235;SDS011;60146;52.498;13.462;2023-03-24T17:28:50;6.83;;;2.60;;
72235;SDS011;60146;52.498;13.462;2023-03-24T17:31:16;6.47;;;2.50;;
72235;SDS011;60146;52.498;13.462;2023-03-24T17:33:41;9.03;;;2.63;;
72235;SDS011;60146;52.498;13.462;2023-03-24T17:36:14;4.40;;;2.40;;
72235;SDS011;60146;52.498;13.462;2023-03-24T17:38:41;6.27;;;2.73;;
72235;SDS011;60146;52.498;13.462;2023-03-24T17:41:07;8.13;;;3.23;;
72235;SDS011;60146;52.498;13.462;2023-03-24T17:43:46;4.37;;;2.40;;
72235;SDS011;60146;52.498;13.462;2023-03-24T17:46:12;7.93;;;2.83;;
72235;SDS011;60146;52.498;13.462;2023-03-24T17:48:37;8.47;;;2.73;;
72235;SDS011;60146;52.498;13.462;2023-03-24T17:51:03;9.10;;;2.60;;
72235;SDS011;60146;52.498;13.462;2023-03-24T17:53:29;5.77;;;2.50;;
72235;SDS011;60146;52.498;13.462;2023-03-24T17:55:58;5.40;;;2.70;;
72235;SDS011;60146;52.498;13.462;2023-03-24T17:58:25;5.97;;;2.60;;
72235;SDS011;60146;52.498;13.462;2023-03-24T18:00:50;9.33;;;2.80;;
72235;SDS011;60146;52.498;13.462;2023-03-24T18:03:16;8.93;;;3.03;;
72235;SDS011;60146;52.498;13.462;2023-03-24T18:05:41;4.00;;;2.40;;
72235;SDS011;60146;52.498;13.462;2023-03-24T18:08:07;6.80;;;2.63;;